sensor_id;sensor_type;location;lat;lon;timestamp;pressure;altitude;pressure_sealevel;temperature;humidity
69411;BME280;56604;48.652;9.194;2023-06-19T00:01:45;95875.50;;;23.52;47.40
69411;BME280;56604;48.652;9.194;2023-06-19T00:04:11;95868.44;;;23.48;47.15
69411;BME280;56604;48.652;9.194;2023-06-19T00:06:36;95866.22;;;23.50;47.34
69411;BME280;56604;48.652;9.194;2023-06-19T00:09:02;95863.34;;;23.43;47.25
69411;BME280;56604;48.652;9.194;2023-06-19T00:11:27;95865.59;;;23.41;48.04
69411;BME280;56604;48.652;9.194;2023-06-19T00:13:52;95869.28;;;23.36;47.92
69411;BME280;56604;48.652;9.194;2023-06-19T00:16:18;95856.31;;;23.38;47.82
69411;BME280;56604;48.652;9.194;2023-06-19T00:18:44;95862.50;;;23.26;48.31
69411;BME280;56604;48.652;9.194;2023-06-19T00:21:10;95853.22;;;23.24;48.15
69411;BME280;56604;48.652;9.194;2023-06-19T00:23:35;95863.63;;;23.25;48.23
69411;BME280;56604;48.652;9.194;2023-06-19T00:26:00;95863.31;;;23.15;48.77
69411;BME280;56604;48.652;9.194;2023-06-19T00:28:27;95865.56;;;23.12;49.02
69411;BME280;56604;48.652;9.194;2023-06-19T00:30:52;95865.69;;;23.04;48.60
69411;BME280;56604;48.652;9.194;2023-06-19T00:33:18;95867.22;;;23.05;48.64
69411;BME280;56604;48.652;9.194;2023-06-19T00:35:43;95867.91;;;23.02;48.96
69411;BME280;56604;48.652;9.194;2023-06-19T00:38:09;95872.59;;;23.05;49.14
69411;BME280;56604;48.652;9.194;2023-06-19T00:40:34;95871.50;;;23.06;49.19
69411;BME280;56604;48.652;9.194;2023-06-19T00:43:00;95873.50;;;23.09;48.73
69411;BME280;56604;48.652;9.194;2023-06-19T00:45:26;95869.78;;;23.13;48.80
69411;BME280;56604;48.652;9.194;2023-06-19T00:47:55;95871.47;;;23.18;48.99
69411;BME280;56604;48.652;9.194;2023-06-19T00:50:22;95872.78;;;23.24;48.32
69411;BME280;56604;48.652;9.194;2023-06-19T00:52:47;95875.56;;;23.28;49.07
69411;BME280;56604;48.652;9.194;2023-06-19T00:55:14;95875.81;;;23.23;48.75
69411;BME280;56604;48.652;9.194;2023-06-19T00:57:40;95884.66;;;23.23;48.77
69411;BME280;56604;48.652;9.194;2023-06-19T01:00:06;95885.63;;;23.31;48.84
69411;BME280;56604;48.652;9.194;2023-06-19T01:02:33;95881.81;;;23.32;49.00
69411;BME280;56604;48.652;9.194;2023-06-19T01:04:59;95875.00;;;23.34;48.64
69411;BME280;56604;48.652;9.194;2023-06-19T01:07:32;95879.78;;;23.41;48.57
69411;BME280;56604;48.652;9.194;2023-06-19T01:10:02;95888.38;;;23.47;48.26
69411;BME280;56604;48.652;9.194;2023-06-19T01:12:33;95889.16;;;23.47;48.51
69411;BME280;56604;48.652;9.194;2023-06-19T01:15:03;95886.81;;;23.46;48.17
69411;BME280;56604;48.652;9.194;2023-06-19T01:17:30;95892.19;;;23.46;48.02
69411;BME280;56604;48.652;9.194;2023-06-19T01:19:57;95902.91;;;23.46;48.98
69411;BME280;56604;48.652;9.194;2023-06-19T01:22:31;95924.38;;;23.46;48.48
69411;BME280;56604;48.652;9.194;2023-06-19T01:24:57;95928.47;;;23.55;48.41
69411;BME280;56604;48.652;9.194;2023-06-19T01:27:23;95919.69;;;23.43;48.95
69411;BME280;56604;48.652;9.194;2023-06-19T01:29:51;95938.81;;;23.41;49.23
69411;BME280;56604;48.652;9.194;2023-06-19T01:32:41;95942.97;;;23.26;50.43
69411;BME280;56604;48.652;9.194;2023-06-19T01:35:07;95945.44;;;22.95;52.81
69411;BME280;56604;48.652;9.194;2023-06-19T01:37:34;95949.00;;;22.86;52.62
69411;BME280;56604;48.652;9.194;2023-06-19T01:40:02;95948.88;;;22.71;54.02
69411;BME280;56604;48.652;9.194;2023-06-19T01:42:29;95948.53;;;22.48;53.76
69411;BME280;56604;48.652;9.194;2023-06-19T01:44:55;95949.16;;;22.32;53.24
69411;BME280;56604;48.652;9.194;2023-06-19T01:47:20;95963.22;;;22.29;53.20
69411;BME280;56604;48.652;9.194;2023-06-19T01:49:47;95951.84;;;22.20;53.47
69411;BME280;56604;48.652;9.194;2023-06-19T01:52:12;95958.28;;;22.19;53.48
69411;BME280;56604;48.652;9.194;2023-06-19T01:54:38;95963.56;;;22.07;53.76
69411;BME280;56604;48.652;9.194;2023-06-19T01:57:04;95958.22;;;22.07;54.11
69411;BME280;56604;48.652;9.194;2023-06-19T01:59:29;95950.38;;;22.01;54.31
69411;BME280;56604;48.652;9.194;2023-06-19T02:01:54;95945.44;;;21.91;54.61
69411;BME280;56604;48.652;9.194;2023-06-19T02:04:20;95950.75;;;21.79;54.63
69411;BME280;56604;48.652;9.194;2023-06-19T02:06:45;95955.91;;;21.84;55.66
69411;BME280;56604;48.652;9.194;2023-06-19T02:09:10;95949.19;;;21.78;55.76
69411;BME280;56604;48.652;9.194;2023-06-19T02:11:36;95951.88;;;21.78;55.72
69411;BME280;56604;48.652;9.194;2023-06-19T02:14:01;95942.91;;;21.74;55.67
69411;BME280;56604;48.652;9.194;2023-06-19T02:16:26;95948.59;;;21.72;56.48
69411;BME280;56604;48.652;9.194;2023-06-19T02:18:52;95952.38;;;21.71;56.31
69411;BME280;56604;48.652;9.194;2023-06-19T02:21:17;95947.94;;;21.75;56.31
69411;BME280;56604;48.652;9.194;2023-06-19T02:23:42;95953.19;;;21.72;56.60
69411;BME280;56604;48.652;9.194;2023-06-19T02:26:07;95943.75;;;21.66;56.91
69411;BME280;56604;48.652;9.194;2023-06-19T02:28:33;95950.69;;;21.67;57.01
69411;BME280;56604;48.652;9.194;2023-06-19T02:30:58;95945.06;;;21.60;57.26
69411;BME280;56604;48.652;9.194;2023-06-19T02:33:23;95953.56;;;21.62;57.51
69411;BME280;56604;48.652;9.194;2023-06-19T02:35:49;95950.75;;;21.58;57.51
69411;BME280;56604;48.652;9.194;2023-06-19T02:38:14;95955.53;;;21.52;57.89
69411;BME280;56604;48.652;9.194;2023-06-19T02:40:40;95955.25;;;21.45;58.13
69411;BME280;56604;48.652;9.194;2023-06-19T02:43:05;95953.31;;;21.54;57.87
69411;BME280;56604;48.652;9.194;2023-06-19T02:45:30;95958.66;;;21.54;57.95
69411;BME280;56604;48.652;9.194;2023-06-19T02:47:56;95956.84;;;21.46;58.10
69411;BME280;56604;48.652;9.194;2023-06-19T02:50:21;95954.81;;;21.43;58.14
69411;BME280;56604;48.652;9.194;2023-06-19T02:52:46;95959.22;;;21.39;58.20
69411;BME280;56604;48.652;9.194;2023-06-19T02:55:12;95962.19;;;21.46;57.74
69411;BME280;56604;48.652;9.194;2023-06-19T02:57:37;95964.78;;;21.55;57.53
69411;BME280;56604;48.652;9.194;2023-06-19T03:00:04;95962.03;;;21.43;58.11
69411;BME280;56604;48.652;9.194;2023-06-19T03:02:31;95982.22;;;21.31;58.35
69411;BME280;56604;48.652;9.194;2023-06-19T03:04:56;95989.78;;;21.38;58.02
69411;BME280;56604;48.652;9.194;2023-06-19T03:07:22;95987.22;;;21.42;58.31
69411;BME280;56604;48.652;9.194;2023-06-19T03:09:47;95989.44;;;21.40;58.33
69411;BME280;56604;48.652;9.194;2023-06-19T03:12:12;95982.38;;;21.35;58.81
69411;BME280;56604;48.652;9.194;2023-06-19T03:14:38;95990.69;;;21.33;58.25
69411;BME280;56604;48.652;9.194;2023-06-19T03:17:05;95988.38;;;21.32;59.12
69411;BME280;56604;48.652;9.194;2023-06-19T03:19:30;95981.00;;;21.29;59.46
69411;BME280;56604;48.652;9.194;2023-06-19T03:21:56;95991.22;;;21.27;59.63
69411;BME280;56604;48.652;9.194;2023-06-19T03:24:21;95989.00;;;21.29;59.41
69411;BME280;56604;48.652;9.194;2023-06-19T03:26:46;95988.22;;;21.28;59.11
69411;BME280;56604;48.652;9.194;2023-06-19T03:29:12;95989.78;;;21.38;59.17
69411;BME280;56604;48.652;9.194;2023-06-19T03:31:37;95987.72;;;21.35;59.06
69411;BME280;56604;48.652;9.194;2023-06-19T03:34:04;95995.84;;;21.18;59.88
69411;BME280;56604;48.652;9.194;2023-06-19T03:36:30;95991.31;;;21.39;59.17
69411;BME280;56604;48.652;9.194;2023-06-19T03:38:55;95980.97;;;21.59;58.48
69411;BME280;56604;48.652;9.194;2023-06-19T03:41:21;95996.84;;;21.64;58.83
69411;BME280;56604;48.652;9.194;2023-06-19T03:43:46;95991.78;;;21.62;58.24
69411;BME280;56604;48.652;9.194;2023-06-19T03:46:12;95993.50;;;21.67;58.64
69411;BME280;56604;48.652;9.194;2023-06-19T03:48:37;95997.94;;;21.63;58.50
69411;BME280;56604;48.652;9.194;2023-06-19T03:51:02;95990.13;;;21.58;59.03
69411;BME280;56604;48.652;9.194;2023-06-19T03:53:28;95998.69;;;21.42;59.80
69411;BME280;56604;48.652;9.194;2023-06-19T03:55:54;95995.19;;;21.50;59.96
69411;BME280;56604;48.652;9.194;2023-06-19T03:58:19;95997.91;;;21.42;62.19
69411;BME280;56604;48.652;9.194;2023-06-19T04:00:45;96003.34;;;21.24;62.55
69411;BME280;56604;48.652;9.194;2023-06-19T04:03:10;96005.69;;;21.26;62.71
69411;BME280;56604;48.652;9.194;2023-06-19T04:05:35;96009.84;;;21.15;62.57
69411;BME280;56604;48.652;9.194;2023-06-19T04:08:01;96014.59;;;21.00;62.58
69411;BME280;56604;48.652;9.194;2023-06-19T04:10:26;96013.16;;;21.11;61.78
69411;BME280;56604;48.652;9.194;2023-06-19T04:12:51;96018.97;;;21.14;60.99
69411;BME280;56604;48.652;9.194;2023-06-19T04:15:17;96010.69;;;21.06;60.84
69411;BME280;56604;48.652;9.194;2023-06-19T04:17:42;96015.19;;;21.15;61.00
69411;BME280;56604;48.652;9.194;2023-06-19T04:20:08;96014.00;;;21.03;61.25
69411;BME280;56604;48.652;9.194;2023-06-19T04:22:37;96013.34;;;21.06;61.71
69411;BME280;56604;48.652;9.194;2023-06-19T04:25:05;96018.31;;;21.17;61.31
69411;BME280;56604;48.652;9.194;2023-06-19T04:27:30;96021.69;;;21.05;62.24
69411;BME280;56604;48.652;9.194;2023-06-19T04:29:55;96016.66;;;21.03;62.63
69411;BME280;56604;48.652;9.194;2023-06-19T04:32:21;96010.06;;;21.01;62.23
69411;BME280;56604;48.652;9.194;2023-06-19T04:34:46;96007.72;;;20.99;62.34
69411;BME280;56604;48.652;9.194;2023-06-19T04:37:12;96011.50;;;20.98;62.23
69411;BME280;56604;48.652;9.194;2023-06-19T04:39:37;96004.38;;;21.02;62.93
69411;BME280;56604;48.652;9.194;2023-06-19T04:42:03;96008.00;;;21.06;62.91
69411;BME280;56604;48.652;9.194;2023-06-19T04:44:28;96010.00;;;21.18;62.08
69411;BME280;56604;48.652;9.194;2023-06-19T04:46:59;96011.53;;;21.19;62.39
69411;BME280;56604;48.652;9.194;2023-06-19T04:49:28;96006.66;;;21.51;61.26
69411;BME280;56604;48.652;9.194;2023-06-19T04:51:55;96010.41;;;21.79;60.74
69411;BME280;56604;48.652;9.194;2023-06-19T04:54:20;96018.84;;;21.69;61.06
69411;BME280;56604;48.652;9.194;2023-06-19T04:56:46;96017.59;;;21.67;60.79
69411;BME280;56604;48.652;9.194;2023-06-19T04:59:11;96021.63;;;21.52;61.52
69411;BME280;56604;48.652;9.194;2023-06-19T05:01:36;96016.13;;;21.48;61.54
69411;BME280;56604;48.652;9.194;2023-06-19T05:04:05;96015.09;;;21.62;61.15
69411;BME280;56604;48.652;9.194;2023-06-19T05:06:31;96015.09;;;21.62;61.31
69411;BME280;56604;48.652;9.194;2023-06-19T05:08:56;96020.09;;;21.42;62.20
69411;BME280;56604;48.652;9.194;2023-06-19T05:11:21;96029.72;;;21.85;60.85
69411;BME280;56604;48.652;9.194;2023-06-19T05:13:46;96024.03;;;21.66;61.75
69411;BME280;56604;48.652;9.194;2023-06-19T05:16:12;96025.88;;;21.74;60.94
69411;BME280;56604;48.652;9.194;2023-06-19T05:18:41;96023.66;;;21.76;60.48
69411;BME280;56604;48.652;9.194;2023-06-19T05:21:08;96026.69;;;21.74;60.89
69411;BME280;56604;48.652;9.194;2023-06-19T05:23:33;96032.41;;;21.85;60.54
69411;BME280;56604;48.652;9.194;2023-06-19T05:26:00;96031.16;;;21.83;61.10
69411;BME280;56604;48.652;9.194;2023-06-19T05:28:25;96033.84;;;22.04;60.21
69411;BME280;56604;48.652;9.194;2023-06-19T05:30:50;96039.84;;;22.21;59.97
69411;BME280;56604;48.652;9.194;2023-06-19T05:33:16;96042.47;;;22.30;60.10
69411;BME280;56604;48.652;9.194;2023-06-19T05:35:42;96031.88;;;22.13;59.83
69411;BME280;56604;48.652;9.194;2023-06-19T05:38:08;96043.13;;;22.06;60.14
69411;BME280;56604;48.652;9.194;2023-06-19T05:40:34;96041.09;;;22.24;60.09
69411;BME280;56604;48.652;9.194;2023-06-19T05:42:59;96045.91;;;22.52;59.29
69411;BME280;56604;48.652;9.194;2023-06-19T05:45:24;96046.66;;;22.85;58.20
69411;BME280;56604;48.652;9.194;2023-06-19T05:47:49;96047.69;;;23.30;57.23
69411;BME280;56604;48.652;9.194;2023-06-19T05:50:15;96052.28;;;23.17;57.36
69411;BME280;56604;48.652;9.194;2023-06-19T05:52:40;96057.66;;;23.54;56.77
69411;BME280;56604;48.652;9.194;2023-06-19T05:55:09;96060.41;;;23.70;55.82
69411;BME280;56604;48.652;9.194;2023-06-19T05:57:35;96058.28;;;23.88;55.53
69411;BME280;56604;48.652;9.194;2023-06-19T06:00:00;96061.66;;;23.60;56.25
69411;BME280;56604;48.652;9.194;2023-06-19T06:02:25;96062.31;;;23.94;55.56
69411;BME280;56604;48.652;9.194;2023-06-19T06:04:53;96064.66;;;23.95;55.19
69411;BME280;56604;48.652;9.194;2023-06-19T06:07:19;96061.00;;;23.75;56.25
69411;BME280;56604;48.652;9.194;2023-06-19T06:09:44;96063.81;;;23.54;56.80
69411;BME280;56604;48.652;9.194;2023-06-19T06:12:09;96061.56;;;23.81;56.38
69411;BME280;56604;48.652;9.194;2023-06-19T06:14:35;96061.47;;;24.18;54.62
69411;BME280;56604;48.652;9.194;2023-06-19T06:17:00;96068.50;;;24.22;54.50
69411;BME280;56604;48.652;9.194;2023-06-19T06:19:25;96065.75;;;24.35;54.48
69411;BME280;56604;48.652;9.194;2023-06-19T06:21:51;96075.47;;;25.11;52.33
69411;BME280;56604;48.652;9.194;2023-06-19T06:24:16;96074.44;;;25.99;50.08
69411;BME280;56604;48.652;9.194;2023-06-19T06:26:42;96083.03;;;26.43;48.95
69411;BME280;56604;48.652;9.194;2023-06-19T06:29:07;96087.31;;;26.44;48.77
69411;BME280;56604;48.652;9.194;2023-06-19T06:31:33;96087.00;;;26.50;48.34
69411;BME280;56604;48.652;9.194;2023-06-19T06:33:58;96103.13;;;27.08;47.04
69411;BME280;56604;48.652;9.194;2023-06-19T06:36:24;96107.78;;;26.88;47.56
69411;BME280;56604;48.652;9.194;2023-06-19T06:38:50;96102.84;;;27.13;48.18
69411;BME280;56604;48.652;9.194;2023-06-19T06:41:15;96107.94;;;27.64;46.46
69411;BME280;56604;48.652;9.194;2023-06-19T06:43:41;96103.72;;;28.84;43.61
69411;BME280;56604;48.652;9.194;2023-06-19T06:46:08;96116.22;;;28.99;42.76
69411;BME280;56604;48.652;9.194;2023-06-19T06:48:33;96107.47;;;28.12;43.74
69411;BME280;56604;48.652;9.194;2023-06-19T06:50:59;96111.84;;;27.67;45.26
69411;BME280;56604;48.652;9.194;2023-06-19T06:53:27;96111.75;;;27.36;46.50
69411;BME280;56604;48.652;9.194;2023-06-19T06:55:57;96103.41;;;27.22;46.91
69411;BME280;56604;48.652;9.194;2023-06-19T06:58:23;96110.94;;;26.51;48.15
69411;BME280;56604;48.652;9.194;2023-06-19T07:00:48;96106.34;;;27.36;46.36
69411;BME280;56604;48.652;9.194;2023-06-19T07:03:16;96115.22;;;28.77;43.78
69411;BME280;56604;48.652;9.194;2023-06-19T07:05:41;96109.72;;;28.66;44.09
69411;BME280;56604;48.652;9.194;2023-06-19T07:08:06;96111.44;;;28.85;43.11
69411;BME280;56604;48.652;9.194;2023-06-19T07:10:31;96121.81;;;29.13;43.18
69411;BME280;56604;48.652;9.194;2023-06-19T07:12:57;96111.31;;;30.96;39.27
69411;BME280;56604;48.652;9.194;2023-06-19T07:15:22;96117.16;;;30.10;39.24
69411;BME280;56604;48.652;9.194;2023-06-19T07:17:47;96111.03;;;31.51;36.10
69411;BME280;56604;48.652;9.194;2023-06-19T07:20:14;96114.50;;;31.69;35.79
69411;BME280;56604;48.652;9.194;2023-06-19T07:22:39;96123.84;;;31.40;36.97
69411;BME280;56604;48.652;9.194;2023-06-19T07:25:05;96122.84;;;30.60;38.06
69411;BME280;56604;48.652;9.194;2023-06-19T07:27:31;96120.06;;;30.50;39.31
69411;BME280;56604;48.652;9.194;2023-06-19T07:29:56;96123.06;;;31.43;37.46
69411;BME280;56604;48.652;9.194;2023-06-19T07:32:22;96125.75;;;31.78;36.42
69411;BME280;56604;48.652;9.194;2023-06-19T07:34:48;96124.25;;;32.87;35.32
69411;BME280;56604;48.652;9.194;2023-06-19T07:37:13;96129.38;;;33.44;34.23
69411;BME280;56604;48.652;9.194;2023-06-19T07:39:46;96136.31;;;34.39;32.42
69411;BME280;56604;48.652;9.194;2023-06-19T07:42:13;96136.22;;;35.11;33.19
69411;BME280;56604;48.652;9.194;2023-06-19T07:44:39;96142.75;;;34.90;31.98
69411;BME280;56604;48.652;9.194;2023-06-19T07:47:05;96146.53;;;34.31;32.75
69411;BME280;56604;48.652;9.194;2023-06-19T07:49:30;96148.84;;;34.36;32.05
69411;BME280;56604;48.652;9.194;2023-06-19T07:51:55;96143.44;;;35.25;31.70
69411;BME280;56604;48.652;9.194;2023-06-19T07:54:20;96145.16;;;34.84;31.85
69411;BME280;56604;48.652;9.194;2023-06-19T07:56:46;96144.06;;;33.61;33.54
69411;BME280;56604;48.652;9.194;2023-06-19T07:59:11;96147.88;;;31.88;36.20
69411;BME280;56604;48.652;9.194;2023-06-19T08:01:36;96140.13;;;31.86;36.04
69411;BME280;56604;48.652;9.194;2023-06-19T08:04:02;96135.69;;;30.74;37.87
69411;BME280;56604;48.652;9.194;2023-06-19T08:06:27;96137.72;;;31.06;37.66
69411;BME280;56604;48.652;9.194;2023-06-19T08:08:53;96141.75;;;30.42;38.29
69411;BME280;56604;48.652;9.194;2023-06-19T08:11:18;96141.16;;;30.81;38.16
69411;BME280;56604;48.652;9.194;2023-06-19T08:13:43;96140.44;;;31.06;37.74
69411;BME280;56604;48.652;9.194;2023-06-19T08:16:09;96144.00;;;31.67;37.26
69411;BME280;56604;48.652;9.194;2023-06-19T08:18:35;96130.75;;;31.30;37.91
69411;BME280;56604;48.652;9.194;2023-06-19T08:21:01;96136.19;;;31.15;38.48
69411;BME280;56604;48.652;9.194;2023-06-19T08:23:26;96134.09;;;30.66;37.48
69411;BME280;56604;48.652;9.194;2023-06-19T08:25:51;96132.19;;;30.77;38.39
69411;BME280;56604;48.652;9.194;2023-06-19T08:28:16;96132.78;;;29.69;39.60
69411;BME280;56604;48.652;9.194;2023-06-19T08:30:44;96132.28;;;31.13;36.86
69411;BME280;56604;48.652;9.194;2023-06-19T08:33:09;96120.56;;;32.52;34.49
69411;BME280;56604;48.652;9.194;2023-06-19T08:35:35;96119.91;;;31.98;34.47
69411;BME280;56604;48.652;9.194;2023-06-19T08:38:00;96130.41;;;33.65;32.86
69411;BME280;56604;48.652;9.194;2023-06-19T08:40:25;96133.97;;;33.58;32.03
69411;BME280;56604;48.652;9.194;2023-06-19T08:42:51;96119.47;;;33.16;33.55
69411;BME280;56604;48.652;9.194;2023-06-19T08:45:17;96122.75;;;34.32;30.93
69411;BME280;56604;48.652;9.194;2023-06-19T08:47:47;96112.97;;;32.92;32.78
69411;BME280;56604;48.652;9.194;2023-06-19T08:50:12;96115.91;;;35.12;30.46
69411;BME280;56604;48.652;9.194;2023-06-19T08:52:38;96111.00;;;32.92;32.04
69411;BME280;56604;48.652;9.194;2023-06-19T08:55:03;96113.03;;;34.31;31.34
69411;BME280;56604;48.652;9.194;2023-06-19T08:57:34;96107.13;;;35.24;30.79
69411;BME280;56604;48.652;9.194;2023-06-19T08:59:59;96115.34;;;32.83;32.84
69411;BME280;56604;48.652;9.194;2023-06-19T09:02:25;96111.25;;;32.42;34.46
69411;BME280;56604;48.652;9.194;2023-06-19T09:04:52;96114.78;;;33.17;32.42
69411;BME280;56604;48.652;9.194;2023-06-19T09:07:17;96117.56;;;33.65;32.65
69411;BME280;56604;48.652;9.194;2023-06-19T09:09:46;96112.66;;;32.76;35.28
69411;BME280;56604;48.652;9.194;2023-06-19T09:12:13;96121.53;;;33.98;33.16
69411;BME280;56604;48.652;9.194;2023-06-19T09:14:41;96115.25;;;33.60;32.75
69411;BME280;56604;48.652;9.194;2023-06-19T09:17:12;96110.56;;;31.85;34.89
69411;BME280;56604;48.652;9.194;2023-06-19T09:19:38;96109.84;;;31.45;35.76
69411;BME280;56604;48.652;9.194;2023-06-19T09:22:11;96112.00;;;32.43;34.25
69411;BME280;56604;48.652;9.194;2023-06-19T09:24:38;96113.31;;;31.95;35.00
69411;BME280;56604;48.652;9.194;2023-06-19T09:27:14;96117.56;;;32.07;34.23
69411;BME280;56604;48.652;9.194;2023-06-19T09:29:41;96108.25;;;32.08;34.49
69411;BME280;56604;48.652;9.194;2023-06-19T09:32:21;96117.97;;;31.84;34.43
69411;BME280;56604;48.652;9.194;2023-06-19T09:34:47;96114.00;;;30.04;36.58
69411;BME280;56604;48.652;9.194;2023-06-19T09:37:12;96117.56;;;31.14;35.87
69411;BME280;56604;48.652;9.194;2023-06-19T09:39:38;96116.59;;;30.49;35.99
69411;BME280;56604;48.652;9.194;2023-06-19T09:42:09;96116.59;;;30.53;36.55
69411;BME280;56604;48.652;9.194;2023-06-19T09:44:42;96110.91;;;30.86;36.03
69411;BME280;56604;48.652;9.194;2023-06-19T09:47:14;96110.91;;;30.86;36.55
69411;BME280;56604;48.652;9.194;2023-06-19T09:49:45;96112.13;;;31.07;36.87
69411;BME280;56604;48.652;9.194;2023-06-19T09:52:12;96111.94;;;30.57;37.01
69411;BME280;56604;48.652;9.194;2023-06-19T09:54:39;96111.78;;;30.21;38.17
69411;BME280;56604;48.652;9.194;2023-06-19T09:57:05;96109.44;;;30.16;38.24
69411;BME280;56604;48.652;9.194;2023-06-19T09:59:30;96108.44;;;30.53;38.04
69411;BME280;56604;48.652;9.194;2023-06-19T10:01:57;96110.47;;;29.93;38.53
69411;BME280;56604;48.652;9.194;2023-06-19T10:04:23;96105.25;;;30.25;37.82
69411;BME280;56604;48.652;9.194;2023-06-19T10:06:49;96105.16;;;31.31;36.33
69411;BME280;56604;48.652;9.194;2023-06-19T10:09:15;96104.06;;;32.81;34.63
69411;BME280;56604;48.652;9.194;2023-06-19T10:11:51;96102.06;;;33.51;33.19
69411;BME280;56604;48.652;9.194;2023-06-19T10:14:20;96107.94;;;34.33;31.94
69411;BME280;56604;48.652;9.194;2023-06-19T10:16:46;96105.84;;;32.24;33.61
69411;BME280;56604;48.652;9.194;2023-06-19T10:19:15;96110.50;;;30.84;36.06
69411;BME280;56604;48.652;9.194;2023-06-19T10:21:46;96108.50;;;30.60;35.96
69411;BME280;56604;48.652;9.194;2023-06-19T10:24:19;96110.59;;;31.20;35.18
69411;BME280;56604;48.652;9.194;2023-06-19T10:26:59;96111.72;;;32.19;33.73
69411;BME280;56604;48.652;9.194;2023-06-19T10:29:25;96106.78;;;33.44;32.43
69411;BME280;56604;48.652;9.194;2023-06-19T10:31:52;96104.97;;;33.75;32.20
69411;BME280;56604;48.652;9.194;2023-06-19T10:34:17;96109.03;;;31.80;34.32
69411;BME280;56604;48.652;9.194;2023-06-19T10:36:43;96099.53;;;30.52;35.41
69411;BME280;56604;48.652;9.194;2023-06-19T10:39:08;96091.78;;;32.51;33.49
69411;BME280;56604;48.652;9.194;2023-06-19T10:41:34;96093.31;;;32.52;34.28
69411;BME280;56604;48.652;9.194;2023-06-19T10:44:01;96093.78;;;33.13;33.41
69411;BME280;56604;48.652;9.194;2023-06-19T10:46:30;96093.84;;;33.03;32.89
69411;BME280;56604;48.652;9.194;2023-06-19T10:48:56;96086.53;;;32.89;32.87
69411;BME280;56604;48.652;9.194;2023-06-19T10:51:26;96097.31;;;32.19;33.89
69411;BME280;56604;48.652;9.194;2023-06-19T10:53:54;96080.22;;;32.18;33.78
69411;BME280;56604;48.652;9.194;2023-06-19T10:56:20;96087.47;;;32.57;33.63
69411;BME280;56604;48.652;9.194;2023-06-19T10:58:46;96088.66;;;32.53;33.07
69411;BME280;56604;48.652;9.194;2023-06-19T11:01:11;96088.38;;;33.06;32.88
69411;BME280;56604;48.652;9.194;2023-06-19T11:03:37;96091.53;;;32.98;32.53
69411;BME280;56604;48.652;9.194;2023-06-19T11:06:02;96084.41;;;33.18;32.93
69411;BME280;56604;48.652;9.194;2023-06-19T11:08:28;96080.53;;;33.68;30.71
69411;BME280;56604;48.652;9.194;2023-06-19T11:10:55;96076.09;;;32.77;32.40
69411;BME280;56604;48.652;9.194;2023-06-19T11:13:21;96073.63;;;33.00;32.61
69411;BME280;56604;48.652;9.194;2023-06-19T11:15:50;96074.84;;;31.90;33.62
69411;BME280;56604;48.652;9.194;2023-06-19T11:18:17;96067.69;;;32.50;33.07
69411;BME280;56604;48.652;9.194;2023-06-19T11:20:52;96069.47;;;32.78;32.17
69411;BME280;56604;48.652;9.194;2023-06-19T11:23:28;96060.88;;;31.91;33.78
69411;BME280;56604;48.652;9.194;2023-06-19T11:25:54;96058.63;;;32.70;33.17
69411;BME280;56604;48.652;9.194;2023-06-19T11:28:21;96063.25;;;31.14;34.06
69411;BME280;56604;48.652;9.194;2023-06-19T11:30:48;96054.63;;;31.98;34.38
69411;BME280;56604;48.652;9.194;2023-06-19T11:33:20;96046.31;;;32.37;34.17
69411;BME280;56604;48.652;9.194;2023-06-19T11:35:50;96057.19;;;33.14;32.63
69411;BME280;56604;48.652;9.194;2023-06-19T11:38:19;96054.53;;;33.07;32.26
69411;BME280;56604;48.652;9.194;2023-06-19T11:40:45;96047.81;;;33.15;31.86
69411;BME280;56604;48.652;9.194;2023-06-19T11:43:11;96047.84;;;33.12;32.49
69411;BME280;56604;48.652;9.194;2023-06-19T11:45:48;96051.19;;;32.75;33.01
69411;BME280;56604;48.652;9.194;2023-06-19T11:48:13;96047.53;;;32.29;32.59
69411;BME280;56604;48.652;9.194;2023-06-19T11:50:39;96054.56;;;32.19;33.17
69411;BME280;56604;48.652;9.194;2023-06-19T11:53:04;96049.66;;;32.74;33.02
69411;BME280;56604;48.652;9.194;2023-06-19T11:55:29;96049.91;;;32.20;34.75
69411;BME280;56604;48.652;9.194;2023-06-19T11:57:54;96050.81;;;31.56;34.67
69411;BME280;56604;48.652;9.194;2023-06-19T12:00:20;96041.88;;;31.16;35.72
69411;BME280;56604;48.652;9.194;2023-06-19T12:02:45;96038.38;;;31.19;35.23
69411;BME280;56604;48.652;9.194;2023-06-19T12:05:13;96051.31;;;30.17;38.83
69411;BME280;56604;48.652;9.194;2023-06-19T12:07:39;96049.34;;;29.44;41.45
69411;BME280;56604;48.652;9.194;2023-06-19T12:10:05;96045.25;;;29.68;40.67
69411;BME280;56604;48.652;9.194;2023-06-19T12:12:35;96044.84;;;29.63;40.44
69411;BME280;56604;48.652;9.194;2023-06-19T12:15:00;96037.25;;;29.86;40.14
69411;BME280;56604;48.652;9.194;2023-06-19T12:17:26;96041.72;;;30.30;40.06
69411;BME280;56604;48.652;9.194;2023-06-19T12:19:51;96034.25;;;30.13;39.59
69411;BME280;56604;48.652;9.194;2023-06-19T12:22:18;96040.03;;;30.08;39.69
69411;BME280;56604;48.652;9.194;2023-06-19T12:24:43;96032.50;;;29.69;40.45
69411;BME280;56604;48.652;9.194;2023-06-19T12:27:09;96032.84;;;30.47;39.15
69411;BME280;56604;48.652;9.194;2023-06-19T12:29:34;96031.66;;;30.41;39.53
69411;BME280;56604;48.652;9.194;2023-06-19T12:32:02;96036.81;;;31.68;37.30
69411;BME280;56604;48.652;9.194;2023-06-19T12:34:28;96032.56;;;31.24;38.49
69411;BME280;56604;48.652;9.194;2023-06-19T12:36:53;96032.34;;;30.20;38.30
69411;BME280;56604;48.652;9.194;2023-06-19T12:39:19;96029.47;;;29.88;38.88
69411;BME280;56604;48.652;9.194;2023-06-19T12:41:44;96030.97;;;29.75;39.49
69411;BME280;56604;48.652;9.194;2023-06-19T12:44:10;96030.63;;;29.80;39.14
69411;BME280;56604;48.652;9.194;2023-06-19T12:46:35;96032.47;;;30.53;38.62
69411;BME280;56604;48.652;9.194;2023-06-19T12:49:02;96025.06;;;30.42;38.47
69411;BME280;56604;48.652;9.194;2023-06-19T12:51:27;96028.63;;;30.61;38.22
69411;BME280;56604;48.652;9.194;2023-06-19T12:53:52;96025.16;;;30.71;39.05
69411;BME280;56604;48.652;9.194;2023-06-19T12:56:18;96024.31;;;30.45;37.23